createdAt,value
2023-05-19T00:00:50.948Z,121.93
2023-05-19T00:01:49.837Z,120.90
2023-05-19T00:02:49.908Z,128.53
2023-05-19T00:03:49.825Z,119.71
2023-05-19T00:04:49.874Z,120.08
2023-05-19T00:05:49.898Z,121.60
2023-05-19T00:06:49.873Z,132.47
2023-05-19T00:07:49.887Z,132.27
2023-05-19T00:08:49.877Z,142.53
2023-05-19T00:09:49.872Z,143.78
2023-05-19T00:10:49.893Z,144.61
2023-05-19T00:11:49.895Z,150.77
2023-05-19T00:12:51.367Z,150.31
2023-05-19T00:13:49.870Z,157.82
2023-05-19T00:14:49.832Z,150.72
2023-05-19T00:15:49.875Z,146.80
2023-05-19T00:16:49.845Z,147.47
2023-05-19T00:17:49.841Z,149.55
2023-05-19T00:18:49.813Z,147.01
2023-05-19T00:19:49.773Z,135.27
2023-05-19T00:20:49.738Z,139.21
2023-05-19T00:21:49.723Z,137.55
2023-05-19T00:22:49.748Z,140.30
2023-05-19T00:23:49.691Z,130.51
2023-05-19T00:24:49.679Z,136.82
2023-05-19T00:25:49.665Z,132.71
2023-05-19T00:26:49.628Z,137.89
2023-05-19T00:27:49.634Z,136.39
2023-05-19T00:28:49.591Z,132.53
2023-05-19T00:29:49.603Z,134.74
2023-05-19T00:30:49.570Z,133.06
2023-05-19T00:31:49.624Z,134.86
2023-05-19T00:32:49.551Z,139.92
2023-05-19T00:33:49.525Z,136.66
2023-05-19T00:34:49.505Z,127.76
2023-05-19T00:35:49.505Z,124.54
2023-05-19T00:36:49.478Z,127.02
2023-05-19T00:37:49.460Z,120.66
2023-05-19T00:38:49.406Z,129.75
2023-05-19T00:39:49.378Z,125.78
2023-05-19T00:40:49.405Z,124.21
2023-05-19T00:41:49.378Z,122.43
2023-05-19T00:42:49.368Z,125.81
2023-05-19T00:43:49.353Z,126.72
2023-05-19T00:44:49.313Z,130.03
2023-05-19T00:45:49.314Z,127.47
2023-05-19T00:46:49.314Z,120.99
2023-05-19T00:47:49.331Z,122.48
2023-05-19T00:48:49.253Z,123.60
2023-05-19T00:49:49.245Z,124.24
2023-05-19T00:50:49.236Z,126.60
2023-05-19T00:51:49.201Z,125.07
2023-05-19T00:52:49.153Z,125.56
2023-05-19T00:53:49.304Z,123.38
2023-05-19T00:54:49.112Z,126.43
2023-05-19T00:55:49.131Z,133.73
2023-05-19T00:56:49.114Z,131.55
2023-05-19T00:57:49.089Z,134.26
2023-05-19T00:58:49.066Z,134.23
2023-05-19T00:59:49.035Z,133.69
2023-05-19T01:00:49.048Z,128.98
2023-05-19T01:01:49.010Z,124.97
2023-05-19T01:02:49.062Z,120.03
2023-05-19T01:03:49.105Z,122.14
2023-05-19T01:04:49.589Z,125.72
2023-05-19T01:05:48.937Z,127.92
2023-05-19T01:06:48.888Z,126.13
2023-05-19T01:07:48.899Z,128.47
2023-05-19T01:08:48.877Z,133.80
2023-05-19T01:09:48.846Z,128.40
2023-05-19T01:10:48.849Z,129.40
2023-05-19T01:11:48.813Z,132.01
2023-05-19T01:12:48.800Z,127.94
2023-05-19T01:13:48.783Z,134.82
2023-05-19T01:14:48.775Z,128.98
2023-05-19T01:15:48.737Z,133.09
2023-05-19T01:16:48.857Z,131.59
2023-05-19T01:17:48.743Z,129.18
2023-05-19T01:18:48.739Z,136.47
2023-05-19T01:19:48.688Z,135.30
2023-05-19T01:20:48.676Z,133.10
2023-05-19T01:21:48.648Z,133.03
2023-05-19T01:22:48.654Z,133.63
2023-05-19T01:23:48.634Z,130.62
2023-05-19T01:24:48.649Z,133.64
2023-05-19T01:25:48.659Z,137.25
2023-05-19T01:26:48.676Z,136.77
2023-05-19T01:27:48.679Z,142.26
2023-05-19T01:28:48.709Z,136.68
2023-05-19T01:29:48.719Z,138.58
2023-05-19T01:30:48.747Z,146.88
2023-05-19T01:31:48.772Z,146.88
2023-05-19T01:32:48.858Z,154.35
2023-05-19T01:33:48.827Z,159.66
2023-05-19T01:34:48.801Z,161.36
2023-05-19T01:35:48.836Z,164.35
2023-05-19T01:36:48.836Z,161.91
2023-05-19T01:37:48.850Z,166.19
2023-05-19T01:38:48.858Z,168.38
2023-05-19T01:39:48.881Z,170.81
2023-05-19T01:40:48.878Z,173.28
2023-05-19T01:41:48.867Z,179.05
2023-05-19T01:42:48.889Z,176.08
2023-05-19T01:43:48.922Z,180.39
2023-05-19T01:44:48.956Z,188.76
2023-05-19T01:45:49.005Z,182.42
2023-05-19T01:46:48.939Z,189.99
2023-05-19T01:47:49.011Z,197.63
2023-05-19T01:48:48.972Z,202.58
2023-05-19T01:49:48.956Z,205.69
2023-05-19T01:50:48.980Z,202.84
2023-05-19T01:51:48.976Z,201.84
2023-05-19T01:52:48.948Z,198.99
2023-05-19T01:53:48.966Z,197.13
2023-05-19T01:54:49.026Z,199.91
2023-05-19T01:55:48.980Z,196.62
2023-05-19T01:56:48.975Z,197.04
2023-05-19T01:57:48.987Z,198.70
2023-05-19T01:58:48.980Z,192.59
2023-05-19T01:59:48.985Z,193.91
2023-05-19T02:00:48.957Z,189.97
2023-05-19T02:01:49.025Z,187.36
2023-05-19T02:02:49.068Z,197.86
2023-05-19T02:03:49.013Z,196.17
2023-05-19T02:04:49.068Z,191.45
2023-05-19T02:05:49.022Z,194.78
2023-05-19T02:06:49.033Z,189.05
2023-05-19T02:07:49.060Z,189.67
2023-05-19T02:08:49.052Z,185.74
2023-05-19T02:09:49.055Z,187.05
2023-05-19T02:10:49.066Z,186.22
2023-05-19T02:11:49.064Z,184.87
2023-05-19T02:12:49.074Z,184.30
2023-05-19T02:13:49.096Z,182.63
2023-05-19T02:14:49.126Z,187.78
2023-05-19T02:15:49.168Z,187.76
2023-05-19T02:16:49.167Z,186.12
2023-05-19T02:17:49.205Z,183.27
2023-05-19T02:18:49.236Z,186.80
2023-05-19T02:19:49.213Z,184.07
2023-05-19T02:20:49.278Z,189.46
2023-05-19T02:21:49.260Z,186.54
2023-05-19T02:22:49.308Z,189.47
2023-05-19T02:23:49.284Z,189.20
2023-05-19T02:24:49.353Z,186.23
2023-05-19T02:25:49.374Z,189.46
2023-05-19T02:26:49.396Z,186.82
2023-05-19T02:27:49.416Z,185.88
2023-05-19T02:28:49.461Z,185.51
2023-05-19T02:29:49.483Z,186.30
2023-05-19T02:30:49.467Z,189.07
2023-05-19T02:31:49.517Z,188.60
2023-05-19T02:32:49.569Z,191.34
2023-05-19T02:33:49.573Z,190.43
2023-05-19T02:34:49.602Z,198.71
2023-05-19T02:35:49.597Z,197.09
2023-05-19T02:36:49.605Z,200.74
2023-05-19T02:37:49.654Z,197.46
2023-05-19T02:38:49.676Z,196.20
2023-05-19T02:39:49.714Z,196.51
2023-05-19T02:40:49.698Z,199.49
2023-05-19T02:41:49.746Z,193.10
2023-05-19T02:42:49.772Z,197.84
2023-05-19T02:43:49.775Z,202.63
2023-05-19T02:44:49.804Z,203.57
2023-05-19T02:45:49.780Z,201.38
2023-05-19T02:46:49.859Z,205.56
2023-05-19T02:47:49.892Z,204.62
2023-05-19T02:48:49.846Z,205.14
2023-05-19T02:49:49.864Z,199.73
2023-05-19T02:50:49.899Z,204.51
2023-05-19T02:51:49.900Z,201.29
2023-05-19T02:52:49.904Z,203.28
2023-05-19T02:53:49.939Z,203.03
2023-05-19T02:54:49.944Z,205.99
2023-05-19T02:55:49.982Z,203.17
2023-05-19T02:56:50.021Z,202.34
2023-05-19T02:57:50.027Z,204.92
2023-05-19T02:58:50.037Z,204.84
2023-05-19T02:59:50.085Z,207.37
2023-05-19T03:00:50.071Z,203.33
2023-05-19T03:01:50.189Z,205.46
2023-05-19T03:02:50.191Z,206.90
2023-05-19T03:03:50.301Z,210.21
2023-05-19T03:04:50.107Z,207.71
2023-05-19T03:05:50.214Z,210.28
2023-05-19T03:06:50.195Z,206.89
2023-05-19T03:07:50.233Z,206.76
2023-05-19T03:08:50.205Z,207.99
2023-05-19T03:09:50.222Z,206.56
2023-05-19T03:10:50.250Z,210.42
2023-05-19T03:11:50.249Z,208.78
2023-05-19T03:12:50.280Z,210.60
2023-05-19T03:13:50.300Z,213.34
2023-05-19T03:14:50.305Z,211.16
2023-05-19T03:15:50.346Z,212.45
2023-05-19T03:16:50.480Z,205.34
2023-05-19T03:17:50.463Z,208.57
2023-05-19T03:18:50.376Z,204.34
2023-05-19T03:19:50.350Z,207.05
2023-05-19T03:20:50.362Z,205.40
2023-05-19T03:21:50.381Z,205.83
2023-05-19T03:22:50.343Z,210.98
2023-05-19T03:23:50.365Z,208.42
2023-05-19T03:24:50.391Z,205.61
2023-05-19T03:25:50.391Z,206.22
2023-05-19T03:26:50.373Z,202.86
2023-05-19T03:27:50.376Z,205.09
2023-05-19T03:28:50.389Z,204.27
2023-05-19T03:29:50.402Z,208.55
2023-05-19T03:30:50.402Z,212.41
2023-05-19T03:31:50.416Z,211.95
2023-05-19T03:32:50.475Z,211.82
2023-05-19T03:33:50.415Z,210.28
2023-05-19T03:34:50.440Z,209.42
2023-05-19T03:35:50.431Z,203.56
2023-05-19T03:36:50.455Z,208.69
2023-05-19T03:37:50.436Z,208.84
2023-05-19T03:38:50.456Z,209.86
2023-05-19T03:39:50.446Z,207.09
2023-05-19T03:40:50.491Z,205.02
2023-05-19T03:41:50.491Z,210.29
2023-05-19T03:42:50.535Z,210.27
2023-05-19T03:43:50.533Z,207.56
2023-05-19T03:44:50.517Z,206.11
2023-05-19T03:45:50.554Z,205.14
2023-05-19T03:46:50.555Z,207.81
2023-05-19T03:47:50.647Z,210.78
2023-05-19T03:48:50.557Z,210.99
2023-05-19T03:49:50.593Z,210.76
2023-05-19T03:50:50.641Z,210.53
2023-05-19T03:51:50.647Z,211.15
2023-05-19T03:52:50.640Z,207.67
2023-05-19T03:53:50.738Z,211.59
2023-05-19T03:54:50.698Z,209.65
2023-05-19T03:55:50.723Z,210.10
2023-05-19T03:56:50.718Z,209.46
2023-05-19T03:57:50.719Z,216.94
2023-05-19T03:58:50.722Z,216.07
2023-05-19T03:59:50.779Z,213.35
2023-05-19T04:00:50.808Z,216.35
2023-05-19T04:01:50.935Z,216.45
2023-05-19T04:02:50.909Z,213.30
2023-05-19T04:03:50.829Z,216.22
2023-05-19T04:04:50.965Z,217.43
2023-05-19T04:05:50.845Z,216.56
2023-05-19T04:06:50.869Z,218.52
2023-05-19T04:07:50.884Z,221.08
2023-05-19T04:08:50.901Z,217.73
2023-05-19T04:09:50.918Z,217.88
2023-05-19T04:10:50.937Z,219.26
2023-05-19T04:11:50.936Z,217.97
2023-05-19T04:12:50.933Z,215.87
2023-05-19T04:13:50.951Z,214.37
2023-05-19T04:14:50.943Z,219.01
2023-05-19T04:15:51.024Z,222.27
2023-05-19T04:16:50.998Z,220.91
2023-05-19T04:17:51.023Z,219.92
2023-05-19T04:18:51.120Z,223.19
2023-05-19T04:19:51.173Z,224.35
2023-05-19T04:20:51.040Z,224.18
2023-05-19T04:21:51.055Z,225.45
2023-05-19T04:22:51.066Z,227.18
2023-05-19T04:23:51.069Z,224.33
2023-05-19T04:24:51.072Z,223.50
2023-05-19T04:25:51.092Z,225.85
2023-05-19T04:26:51.075Z,227.90
2023-05-19T04:27:51.091Z,227.58
2023-05-19T04:28:51.127Z,225.27
2023-05-19T04:29:51.136Z,225.09
2023-05-19T04:30:51.186Z,226.73
2023-05-19T04:31:51.177Z,226.40
2023-05-19T04:32:51.226Z,227.41
2023-05-19T04:33:51.180Z,230.76
2023-05-19T04:34:51.224Z,227.55
2023-05-19T04:35:51.230Z,230.45
2023-05-19T04:36:53.397Z,230.24
2023-05-19T04:37:51.269Z,229.31
2023-05-19T04:38:51.229Z,229.45
2023-05-19T04:39:51.276Z,227.94
2023-05-19T04:40:51.286Z,227.34
2023-05-19T04:41:51.371Z,232.90
2023-05-19T04:42:51.306Z,230.49
2023-05-19T04:43:51.355Z,231.24
2023-05-19T04:44:51.351Z,229.28
2023-05-19T04:45:51.386Z,226.70
2023-05-19T04:46:51.444Z,226.75
2023-05-19T04:47:51.467Z,224.89
2023-05-19T04:48:51.411Z,224.32
2023-05-19T04:49:51.436Z,225.17
2023-05-19T04:50:51.452Z,222.91
2023-05-19T04:51:53.309Z,218.97
2023-05-19T04:52:51.447Z,220.67
2023-05-19T04:53:51.430Z,225.86
2023-05-19T04:54:51.399Z,224.85
2023-05-19T04:55:51.383Z,215.44
2023-05-19T04:56:51.362Z,216.70
2023-05-19T04:57:51.317Z,217.91
2023-05-19T04:58:51.277Z,218.00
2023-05-19T04:59:51.264Z,215.83
2023-05-19T05:00:58.754Z,215.91
2023-05-19T05:01:51.204Z,216.33
2023-05-19T05:02:51.325Z,217.01
2023-05-19T05:03:51.151Z,217.99
2023-05-19T05:04:51.127Z,218.25
2023-05-19T05:05:51.061Z,221.55
2023-05-19T05:06:51.042Z,218.60
2023-05-19T05:07:51.035Z,223.22
2023-05-19T05:08:50.984Z,224.49
2023-05-19T05:09:51.012Z,219.48
2023-05-19T05:10:50.875Z,219.55
2023-05-19T05:11:50.841Z,217.01
2023-05-19T05:12:50.820Z,222.64
2023-05-19T05:13:50.754Z,223.41
2023-05-19T05:14:50.715Z,220.73
2023-05-19T05:15:50.699Z,225.56
2023-05-19T05:16:50.759Z,223.27
2023-05-19T05:17:50.690Z,223.90
2023-05-19T05:18:50.608Z,220.00
2023-05-19T05:19:50.548Z,224.23
2023-05-19T05:20:50.595Z,226.53
2023-05-19T05:21:51.557Z,222.25
2023-05-19T05:22:50.577Z,215.02
2023-05-19T05:23:50.585Z,212.91
2023-05-19T05:24:50.625Z,211.91
2023-05-19T05:25:50.596Z,213.04
2023-05-19T05:26:50.617Z,211.75
2023-05-19T05:27:50.653Z,207.95
2023-05-19T05:28:50.649Z,209.27
2023-05-19T05:29:51.681Z,214.37
2023-05-19T05:30:50.700Z,207.60
2023-05-19T05:31:50.781Z,205.13
2023-05-19T05:32:50.781Z,208.52
2023-05-19T05:33:50.770Z,200.07
2023-05-19T05:34:50.800Z,203.85
2023-05-19T05:35:50.797Z,199.92
2023-05-19T05:36:50.851Z,200.85
2023-05-19T05:37:50.849Z,196.64
2023-05-19T05:38:50.858Z,197.52
2023-05-19T05:39:50.896Z,192.28
2023-05-19T05:40:50.907Z,192.24
2023-05-19T05:41:50.910Z,191.28
2023-05-19T05:42:50.941Z,186.78
2023-05-19T05:43:50.952Z,188.95
2023-05-19T05:44:50.971Z,191.28
2023-05-19T05:45:58.268Z,191.77
2023-05-19T05:46:50.938Z,192.04
2023-05-19T05:47:50.991Z,190.76
2023-05-19T05:48:50.903Z,192.26
2023-05-19T05:49:52.973Z,189.16
2023-05-19T05:50:50.822Z,191.94
2023-05-19T05:52:01.802Z,190.21
2023-05-19T05:52:51.759Z,190.45
2023-05-19T05:53:50.712Z,190.76
2023-05-19T05:54:50.691Z,192.57
2023-05-19T05:55:50.636Z,193.81
2023-05-19T05:56:50.619Z,193.25
2023-05-19T05:57:50.652Z,194.22
2023-05-19T05:58:50.538Z,193.62
2023-05-19T05:59:50.528Z,198.65
2023-05-19T06:00:50.478Z,200.08
2023-05-19T06:01:50.470Z,205.01
2023-05-19T06:02:50.586Z,210.41
2023-05-19T06:03:50.561Z,214.25
2023-05-19T06:04:50.458Z,216.89
2023-05-19T06:05:50.460Z,214.54
2023-05-19T06:06:50.471Z,216.47
2023-05-19T06:07:50.482Z,219.99
2023-05-19T06:08:50.491Z,221.26
2023-05-19T06:09:50.497Z,221.09
2023-05-19T06:10:50.511Z,224.58
2023-05-19T06:11:50.509Z,227.18
2023-05-19T06:12:50.510Z,229.60
2023-05-19T06:13:50.519Z,231.95
2023-05-19T06:14:50.554Z,233.61
2023-05-19T06:15:50.587Z,236.31
2023-05-19T06:16:50.564Z,238.23
2023-05-19T06:17:50.601Z,238.27
2023-05-19T06:18:50.607Z,237.11
2023-05-19T06:19:50.664Z,236.71
2023-05-19T06:20:50.633Z,239.04
2023-05-19T06:21:50.669Z,239.36
2023-05-19T06:22:50.644Z,237.10
2023-05-19T06:23:50.631Z,241.73
2023-05-19T06:24:50.654Z,242.50
2023-05-19T06:25:50.688Z,243.16
2023-05-19T06:26:50.716Z,239.41
2023-05-19T06:27:50.722Z,240.14
2023-05-19T06:28:50.755Z,240.83
2023-05-19T06:29:50.730Z,241.78
2023-05-19T06:30:50.733Z,244.49
2023-05-19T06:31:50.851Z,241.73
2023-05-19T06:32:50.808Z,245.70
2023-05-19T06:33:50.876Z,244.80
2023-05-19T06:34:50.790Z,242.13
2023-05-19T06:35:50.821Z,242.59
2023-05-19T06:36:50.840Z,240.50
2023-05-19T06:37:50.882Z,241.97
2023-05-19T06:38:50.853Z,237.80
2023-05-19T06:39:50.852Z,238.78
2023-05-19T06:40:50.880Z,243.23
2023-05-19T06:41:50.917Z,237.08
2023-05-19T06:42:50.890Z,240.36
2023-05-19T06:43:50.920Z,238.98
2023-05-19T06:44:50.945Z,237.53
2023-05-19T06:45:50.951Z,235.57
2023-05-19T06:46:51.061Z,236.32
2023-05-19T06:47:51.026Z,231.06
2023-05-19T06:48:50.987Z,226.55
2023-05-19T06:49:51.857Z,221.83
2023-05-19T06:50:51.071Z,220.63
2023-05-19T06:51:51.095Z,218.17
2023-05-19T06:52:51.102Z,218.03
2023-05-19T06:53:51.218Z,216.29
2023-05-19T06:54:51.104Z,217.03
2023-05-19T06:55:58.853Z,212.46
2023-05-19T06:56:52.100Z,212.70
2023-05-19T06:57:51.090Z,213.34
2023-05-19T06:58:51.067Z,212.51
2023-05-19T06:59:51.008Z,213.69
2023-05-19T07:00:50.981Z,212.51
2023-05-19T07:01:50.971Z,211.36
2023-05-19T07:02:50.989Z,210.65
2023-05-19T07:03:50.926Z,213.03
2023-05-19T07:04:50.798Z,213.61
2023-05-19T07:05:50.831Z,207.39
2023-05-19T07:06:50.768Z,207.70
2023-05-19T07:07:50.740Z,206.28
2023-05-19T07:08:50.759Z,205.97
2023-05-19T07:09:50.799Z,205.33
2023-05-19T07:10:50.825Z,203.51
2023-05-19T07:11:50.858Z,203.40
2023-05-19T07:12:50.866Z,201.20
2023-05-19T07:13:50.871Z,199.55
2023-05-19T07:14:50.903Z,198.09
2023-05-19T07:15:50.932Z,198.87
2023-05-19T07:16:51.080Z,197.75
2023-05-19T07:17:51.021Z,197.64
2023-05-19T07:18:51.037Z,200.44
2023-05-19T07:19:51.002Z,200.69
2023-05-19T07:20:50.990Z,207.00
2023-05-19T07:21:51.016Z,201.96
2023-05-19T07:22:51.031Z,202.05
2023-05-19T07:23:51.043Z,198.16
2023-05-19T07:24:51.055Z,199.87
2023-05-19T07:25:51.073Z,195.79
2023-05-19T07:26:51.058Z,195.26
2023-05-19T07:27:51.095Z,190.78
2023-05-19T07:28:51.103Z,190.92
2023-05-19T07:29:51.133Z,190.85
2023-05-19T07:30:51.119Z,184.95
2023-05-19T07:31:51.194Z,189.25
2023-05-19T07:32:51.220Z,188.97
2023-05-19T07:34:51.194Z,189.65
2023-05-19T07:35:51.238Z,188.55
2023-05-19T07:36:51.227Z,189.36
2023-05-19T07:37:51.280Z,190.52
2023-05-19T07:38:51.319Z,188.30
2023-05-19T07:39:51.301Z,192.02
2023-05-19T07:40:51.279Z,190.12
2023-05-19T07:41:51.319Z,184.48
2023-05-19T07:42:51.263Z,185.78
2023-05-19T07:43:51.303Z,196.32
2023-05-19T07:44:51.320Z,187.82
2023-05-19T07:45:51.390Z,185.69
2023-05-19T07:46:51.375Z,185.39
2023-05-19T07:47:51.380Z,181.36
2023-05-19T07:48:51.338Z,179.74
2023-05-19T07:49:52.073Z,184.13
2023-05-19T07:50:51.374Z,180.55
2023-05-19T07:51:51.427Z,176.79
2023-05-19T07:52:51.459Z,176.43
2023-05-19T07:53:51.449Z,171.98
2023-05-19T07:54:51.453Z,172.15
2023-05-19T07:55:51.444Z,159.82
2023-05-19T07:56:51.466Z,163.94
2023-05-19T07:57:51.490Z,161.69
2023-05-19T07:58:51.518Z,154.60
2023-05-19T07:59:51.478Z,155.55
2023-05-19T08:00:51.546Z,155.74
2023-05-19T08:01:51.529Z,159.42
2023-05-19T08:02:51.609Z,159.35
2023-05-19T08:03:51.612Z,154.00
2023-05-19T08:04:51.690Z,145.98
2023-05-19T08:05:51.590Z,139.17
2023-05-19T08:06:51.569Z,140.43
2023-05-19T08:07:51.608Z,139.58
2023-05-19T08:08:51.606Z,137.85
2023-05-19T08:09:51.627Z,136.52
2023-05-19T08:10:51.623Z,107.05
2023-05-19T08:11:51.629Z,97.40
2023-05-19T08:12:51.638Z,91.52
2023-05-19T08:13:51.688Z,90.47
2023-05-19T08:14:51.659Z,92.81
2023-05-19T08:15:51.724Z,86.83
2023-05-19T08:16:51.669Z,80.86
2023-05-19T08:17:51.724Z,74.51
2023-05-19T08:18:51.721Z,73.53
2023-05-19T08:19:51.739Z,75.98
2023-05-19T08:20:51.804Z,84.59
2023-05-19T08:21:51.769Z,90.09
2023-05-19T08:22:51.758Z,92.64
2023-05-19T08:23:51.754Z,106.29
2023-05-19T08:24:51.854Z,113.19
2023-05-19T08:25:51.789Z,102.91
2023-05-19T08:26:51.835Z,108.23
2023-05-19T08:27:51.846Z,111.15
2023-05-19T08:28:51.815Z,110.43
2023-05-19T08:29:51.829Z,108.80
2023-05-19T08:30:51.854Z,115.57
2023-05-19T08:31:51.899Z,118.42
2023-05-19T08:32:51.948Z,122.77
2023-05-19T08:33:51.856Z,120.78
2023-05-19T08:34:51.901Z,103.05
2023-05-19T08:35:51.921Z,99.81
2023-05-19T08:36:51.908Z,101.48
2023-05-19T08:37:51.915Z,88.81
2023-05-19T08:38:51.921Z,97.01
2023-05-19T08:39:51.920Z,103.75
2023-05-19T08:40:51.990Z,112.72
2023-05-19T08:41:51.986Z,115.85
2023-05-19T08:42:51.993Z,113.00
2023-05-19T08:43:52.010Z,101.14
2023-05-19T08:44:52.022Z,100.79
2023-05-19T08:45:52.012Z,100.98
2023-05-19T08:46:52.108Z,108.15
2023-05-19T08:47:52.170Z,105.31
2023-05-19T08:48:52.041Z,97.55
2023-05-19T08:49:52.043Z,99.39
2023-05-19T08:50:52.050Z,94.93
2023-05-19T08:51:52.073Z,92.41
2023-05-19T08:52:53.293Z,92.83
2023-05-19T08:53:52.037Z,89.97
2023-05-19T08:54:52.058Z,97.07
2023-05-19T08:55:52.039Z,91.79
2023-05-19T08:56:52.079Z,88.02
2023-05-19T08:57:52.118Z,92.48
2023-05-19T08:58:52.122Z,95.47
2023-05-19T08:59:52.086Z,100.45
2023-05-19T09:00:52.138Z,98.03
2023-05-19T09:01:52.133Z,97.51
2023-05-19T09:03:00.744Z,101.82
2023-05-19T09:03:53.198Z,102.04
2023-05-19T09:04:52.130Z,99.95
2023-05-19T09:05:52.193Z,103.55
2023-05-19T09:06:52.001Z,103.24
2023-05-19T09:07:51.941Z,108.49
2023-05-19T09:08:51.941Z,107.93
2023-05-19T09:09:51.905Z,110.21
2023-05-19T09:10:51.891Z,114.73
2023-05-19T09:11:51.836Z,106.98
2023-05-19T09:12:51.791Z,103.36
2023-05-19T09:13:51.770Z,99.49
2023-05-19T09:14:51.748Z,106.26
2023-05-19T09:15:51.816Z,106.33
2023-05-19T09:16:51.873Z,97.51
2023-05-19T09:17:51.865Z,86.51
2023-05-19T09:18:51.834Z,78.23
2023-05-19T09:19:51.832Z,71.07
2023-05-19T09:20:51.946Z,68.62
2023-05-19T09:21:51.867Z,64.79
2023-05-19T09:22:51.893Z,71.73
2023-05-19T09:23:51.886Z,61.56
2023-05-19T09:24:51.925Z,65.49
2023-05-19T09:25:51.940Z,68.55
2023-05-19T09:26:51.943Z,60.81
2023-05-19T09:27:51.992Z,55.30
2023-05-19T09:28:51.983Z,51.40
2023-05-19T09:29:52.038Z,54.26
2023-05-19T09:30:52.057Z,71.34
2023-05-19T09:31:52.154Z,81.61
2023-05-19T09:32:52.164Z,82.50
2023-05-19T09:33:52.116Z,87.94
2023-05-19T09:34:52.145Z,87.93
2023-05-19T09:35:52.178Z,86.72
2023-05-19T09:36:52.214Z,95.51
2023-05-19T09:37:52.242Z,97.86
2023-05-19T09:38:52.264Z,95.77
2023-05-19T09:39:52.297Z,82.60
2023-05-19T09:40:52.324Z,82.48
2023-05-19T09:41:52.344Z,82.15
2023-05-19T09:42:52.386Z,68.59
2023-05-19T09:43:52.362Z,47.43
2023-05-19T09:44:52.364Z,32.62
2023-05-19T09:45:52.415Z,34.30
2023-05-19T09:46:52.424Z,34.86
2023-05-19T09:47:52.445Z,27.43
2023-05-19T09:48:52.428Z,38.28
2023-05-19T09:49:52.487Z,47.56
2023-05-19T09:50:52.487Z,60.20
2023-05-19T09:51:52.479Z,40.59
2023-05-19T09:52:52.534Z,25.00
2023-05-19T09:53:52.507Z,25.96
2023-05-19T09:54:52.505Z,25.46
2023-05-19T09:55:52.525Z,25.00
2023-05-19T09:56:52.528Z,26.50
2023-05-19T09:57:52.524Z,25.00
2023-05-19T09:58:52.578Z,25.59
2023-05-19T09:59:52.585Z,37.66
2023-05-19T10:00:52.607Z,41.78
2023-05-19T10:01:52.626Z,50.90
2023-05-19T10:02:52.634Z,54.56
2023-05-19T10:03:52.656Z,53.95
2023-05-19T10:04:52.655Z,57.35
2023-05-19T10:05:52.679Z,55.19
2023-05-19T10:06:52.724Z,55.08
2023-05-19T10:07:52.718Z,59.59
2023-05-19T10:08:52.735Z,62.05
2023-05-19T10:09:52.742Z,68.17
2023-05-19T10:10:52.761Z,62.49
2023-05-19T10:11:52.781Z,64.70
2023-05-19T10:12:52.780Z,58.78
2023-05-19T10:13:52.764Z,66.52
2023-05-19T10:14:52.832Z,69.79
2023-05-19T10:15:58.731Z,71.59
2023-05-19T10:16:53.833Z,71.89
2023-05-19T10:17:52.848Z,73.33
2023-05-19T10:18:52.769Z,74.40
2023-05-19T10:19:52.713Z,79.24
2023-05-19T10:20:52.667Z,73.72
2023-05-19T10:21:52.655Z,82.60
2023-05-19T10:22:52.643Z,83.60
2023-05-19T10:23:52.580Z,82.26
2023-05-19T10:24:52.541Z,88.00
2023-05-19T10:25:52.504Z,85.77
2023-05-19T10:26:52.474Z,83.26
2023-05-19T10:27:52.487Z,79.91
2023-05-19T10:28:52.493Z,78.01
2023-05-19T10:29:52.563Z,75.35
2023-05-19T10:30:52.521Z,76.24
2023-05-19T10:31:52.662Z,76.43
2023-05-19T10:32:52.626Z,83.43
2023-05-19T10:33:52.602Z,69.94
2023-05-19T10:34:52.610Z,60.96
2023-05-19T10:35:52.638Z,62.88
2023-05-19T10:36:52.633Z,64.31
2023-05-19T10:37:52.655Z,78.94
2023-05-19T10:38:52.645Z,73.07
2023-05-19T10:39:52.651Z,74.07
2023-05-19T10:40:52.649Z,68.23
2023-05-19T10:41:52.694Z,73.90
2023-05-19T10:42:52.726Z,72.40
2023-05-19T10:43:52.696Z,71.84
2023-05-19T10:44:52.728Z,84.92
2023-05-19T10:45:52.731Z,95.77
2023-05-19T10:46:54.340Z,103.25
2023-05-19T10:47:52.749Z,97.26
2023-05-19T10:48:52.658Z,94.10
2023-05-19T10:49:52.626Z,96.72
2023-05-19T10:50:52.595Z,95.42
2023-05-19T10:51:52.539Z,101.37
2023-05-19T10:52:52.551Z,104.40
2023-05-19T10:53:52.477Z,99.03
2023-05-19T10:54:52.420Z,99.95
2023-05-19T10:55:52.422Z,96.83
2023-05-19T10:56:52.351Z,96.79
2023-05-19T10:57:52.331Z,93.14
2023-05-19T10:58:52.331Z,97.67
2023-05-19T10:59:52.244Z,105.54
2023-05-19T11:00:52.228Z,108.34
2023-05-19T11:01:52.239Z,101.90
2023-05-19T11:02:52.186Z,89.56
2023-05-19T11:03:52.139Z,74.90
2023-05-19T11:04:52.232Z,101.24
2023-05-19T11:05:52.013Z,112.02
2023-05-19T11:06:51.977Z,118.38
2023-05-19T11:07:51.934Z,115.42
2023-05-19T11:08:51.901Z,103.11
2023-05-19T11:09:51.859Z,106.14
2023-05-19T11:10:51.792Z,85.35
2023-05-19T11:11:51.773Z,74.67
2023-05-19T11:12:52.444Z,87.31
2023-05-19T11:13:51.645Z,82.47
2023-05-19T11:14:51.658Z,81.03
2023-05-19T11:15:51.614Z,99.01
2023-05-19T11:16:51.574Z,98.86
2023-05-19T11:17:51.535Z,99.75
2023-05-19T11:18:51.499Z,80.81
2023-05-19T11:19:51.440Z,91.83
2023-05-19T11:20:51.422Z,95.91
2023-05-19T11:21:51.339Z,95.42
2023-05-19T11:22:51.310Z,100.11
2023-05-19T11:23:51.319Z,97.66
2023-05-19T11:24:51.261Z,95.79
2023-05-19T11:25:51.228Z,94.24
2023-05-19T11:26:51.132Z,99.59
2023-05-19T11:27:51.078Z,98.04
2023-05-19T11:28:51.036Z,96.48
2023-05-19T11:29:51.012Z,101.32
2023-05-19T11:30:50.997Z,106.13
2023-05-19T11:31:50.983Z,105.44
2023-05-19T11:32:51.009Z,109.94
2023-05-19T11:33:50.985Z,102.76
2023-05-19T11:34:50.986Z,100.44
2023-05-19T11:35:51.048Z,93.60
2023-05-19T11:36:51.043Z,88.15
2023-05-19T11:37:51.128Z,86.22
2023-05-19T11:38:51.045Z,75.11
2023-05-19T11:39:51.056Z,80.30
2023-05-19T11:40:51.048Z,87.75
2023-05-19T11:41:51.084Z,91.70
2023-05-19T11:42:51.106Z,74.24
2023-05-19T11:43:51.112Z,52.81
2023-05-19T11:44:51.149Z,72.60
2023-05-19T11:45:51.210Z,54.34
2023-05-19T11:46:51.159Z,57.31
2023-05-19T11:48:01.952Z,66.79
2023-05-19T11:48:52.096Z,64.26
2023-05-19T11:49:51.060Z,46.47
2023-05-19T11:50:51.085Z,31.39
2023-05-19T11:51:51.009Z,38.00
2023-05-19T11:52:50.968Z,48.79
2023-05-19T11:53:50.908Z,46.71
2023-05-19T11:54:50.877Z,66.88
2023-05-19T11:55:51.296Z,69.22
2023-05-19T11:56:50.963Z,65.77
2023-05-19T11:58:02.801Z,55.45
2023-05-19T11:58:51.755Z,55.57
2023-05-19T11:59:50.689Z,55.44
2023-05-19T12:00:50.639Z,43.54
2023-05-19T12:01:50.610Z,34.77
2023-05-19T12:02:50.657Z,19.78
2023-05-19T12:03:50.638Z,32.23
2023-05-19T12:04:50.578Z,24.54
2023-05-19T12:05:50.707Z,30.91
2023-05-19T12:06:50.433Z,25.88
2023-05-19T12:07:50.432Z,24.76
2023-05-19T12:08:50.394Z,26.50
2023-05-19T12:09:50.448Z,30.05
2023-05-19T12:10:50.420Z,39.06
2023-05-19T12:11:50.482Z,51.87
2023-05-19T12:12:50.465Z,67.43
2023-05-19T12:13:50.497Z,79.48
2023-05-19T12:14:50.511Z,90.17
2023-05-19T12:15:50.543Z,91.99
2023-05-19T12:16:50.572Z,66.02
2023-05-19T12:17:50.564Z,79.53
2023-05-19T12:18:50.573Z,76.22
2023-05-19T12:19:50.560Z,58.06
2023-05-19T12:20:50.559Z,41.54
2023-05-19T12:21:50.579Z,39.81
2023-05-19T12:22:50.563Z,31.85
2023-05-19T12:23:50.593Z,35.59
2023-05-19T12:24:50.566Z,24.20
2023-05-19T12:25:50.578Z,28.22
2023-05-19T12:26:50.617Z,42.72
2023-05-19T12:27:50.638Z,32.93
2023-05-19T12:28:50.678Z,44.36
2023-05-19T12:29:50.672Z,38.93
2023-05-19T12:30:50.687Z,35.55
2023-05-19T12:31:50.739Z,52.62
2023-05-19T12:32:50.804Z,63.60
2023-05-19T12:33:50.743Z,51.84
2023-05-19T12:34:50.798Z,45.86
2023-05-19T12:35:50.803Z,42.34
2023-05-19T12:36:50.828Z,35.72